sensor_id;sensor_type;location;lat;lon;timestamp;P1;durP1;ratioP1;P2;durP2;ratioP2
40955;SDS011;26687;48.254;11.454;2023-12-14T00:01:36;2.80;;;0.40;;
40955;SDS011;26687;48.254;11.454;2023-12-14T00:04:36;0.30;;;0.30;;
40955;SDS011;26687;48.254;11.454;2023-12-14T00:07:36;0.60;;;0.30;;
40955;SDS011;26687;48.254;11.454;2023-12-14T00:10:36;1.87;;;0.60;;
40955;SDS011;26687;48.254;11.454;2023-12-14T00:13:37;0.57;;;0.40;;
40955;SDS011;26687;48.254;11.454;2023-12-14T00:16:37;1.20;;;0.40;;
40955;SDS011;26687;48.254;11.454;2023-12-14T00:19:37;1.05;;;0.40;;
40955;SDS011;26687;48.254;11.454;2023-12-14T00:22:37;0.68;;;0.50;;
40955;SDS011;26687;48.254;11.454;2023-12-14T00:25:38;1.25;;;0.60;;
40955;SDS011;26687;48.254;11.454;2023-12-14T00:28:38;0.80;;;0.50;;
40955;SDS011;26687;48.254;11.454;2023-12-14T00:31:38;0.68;;;0.40;;
40955;SDS011;26687;48.254;11.454;2023-12-14T00:34:38;0.73;;;0.45;;
40955;SDS011;26687;48.254;11.454;2023-12-14T00:37:38;0.77;;;0.50;;
40955;SDS011;26687;48.254;11.454;2023-12-14T00:40:39;0.47;;;0.47;;
40955;SDS011;26687;48.254;11.454;2023-12-14T00:43:39;1.05;;;0.50;;
40955;SDS011;26687;48.254;11.454;2023-12-14T00:46:39;0.70;;;0.60;;
40955;SDS011;26687;48.254;11.454;2023-12-14T00:49:41;1.88;;;0.60;;
40955;SDS011;26687;48.254;11.454;2023-12-14T00:52:41;0.93;;;0.70;;
40955;SDS011;26687;48.254;11.454;2023-12-14T00:55:41;0.60;;;0.60;;
40955;SDS011;26687;48.254;11.454;2023-12-14T00:58:41;1.23;;;0.70;;
40955;SDS011;26687;48.254;11.454;2023-12-14T01:01:42;1.23;;;0.50;;
40955;SDS011;26687;48.254;11.454;2023-12-14T01:04:42;1.13;;;0.65;;
40955;SDS011;26687;48.254;11.454;2023-12-14T01:07:42;0.90;;;0.55;;
40955;SDS011;26687;48.254;11.454;2023-12-14T01:10:42;1.73;;;0.80;;
40955;SDS011;26687;48.254;11.454;2023-12-14T01:13:43;1.57;;;0.60;;
40955;SDS011;26687;48.254;11.454;2023-12-14T01:16:43;0.60;;;0.50;;
40955;SDS011;26687;48.254;11.454;2023-12-14T01:19:43;0.57;;;0.40;;
40955;SDS011;26687;48.254;11.454;2023-12-14T01:22:43;0.55;;;0.55;;
40955;SDS011;26687;48.254;11.454;2023-12-14T01:25:43;0.40;;;0.40;;
40955;SDS011;26687;48.254;11.454;2023-12-14T01:28:43;0.60;;;0.60;;
40955;SDS011;26687;48.254;11.454;2023-12-14T01:31:44;0.85;;;0.70;;
40955;SDS011;26687;48.254;11.454;2023-12-14T01:34:44;0.93;;;0.52;;
40955;SDS011;26687;48.254;11.454;2023-12-14T01:37:45;0.60;;;0.50;;
40955;SDS011;26687;48.254;11.454;2023-12-14T01:40:45;0.93;;;0.60;;
40955;SDS011;26687;48.254;11.454;2023-12-14T01:43:45;0.83;;;0.53;;
40955;SDS011;26687;48.254;11.454;2023-12-14T01:46:45;0.50;;;0.50;;
40955;SDS011;26687;48.254;11.454;2023-12-14T01:49:45;0.55;;;0.40;;
40955;SDS011;26687;48.254;11.454;2023-12-14T01:52:45;0.52;;;0.50;;
40955;SDS011;26687;48.254;11.454;2023-12-14T01:55:46;1.35;;;0.50;;
40955;SDS011;26687;48.254;11.454;2023-12-14T01:58:46;0.40;;;0.30;;
40955;SDS011;26687;48.254;11.454;2023-12-14T02:01:46;1.20;;;0.40;;
40955;SDS011;26687;48.254;11.454;2023-12-14T02:04:51;0.40;;;0.40;;
40955;SDS011;26687;48.254;11.454;2023-12-14T02:07:51;1.07;;;0.20;;
40955;SDS011;26687;48.254;11.454;2023-12-14T02:10:51;0.30;;;0.30;;
40955;SDS011;26687;48.254;11.454;2023-12-14T02:13:52;0.50;;;0.30;;
40955;SDS011;26687;48.254;11.454;2023-12-14T02:16:52;0.43;;;0.30;;
40955;SDS011;26687;48.254;11.454;2023-12-14T02:19:52;0.30;;;0.28;;
40955;SDS011;26687;48.254;11.454;2023-12-14T02:22:53;0.38;;;0.30;;
40955;SDS011;26687;48.254;11.454;2023-12-14T02:25:53;0.60;;;0.35;;
40955;SDS011;26687;48.254;11.454;2023-12-14T02:28:53;0.35;;;0.30;;
40955;SDS011;26687;48.254;11.454;2023-12-14T02:31:53;0.32;;;0.32;;
40955;SDS011;26687;48.254;11.454;2023-12-14T02:34:53;0.68;;;0.57;;
40955;SDS011;26687;48.254;11.454;2023-12-14T02:37:53;0.63;;;0.40;;
40955;SDS011;26687;48.254;11.454;2023-12-14T02:40:54;0.70;;;0.70;;
40955;SDS011;26687;48.254;11.454;2023-12-14T02:43:54;0.60;;;0.60;;
40955;SDS011;26687;48.254;11.454;2023-12-14T02:46:54;1.33;;;0.68;;
40955;SDS011;26687;48.254;11.454;2023-12-14T02:49:54;0.93;;;0.93;;
40955;SDS011;26687;48.254;11.454;2023-12-14T02:52:54;0.75;;;0.75;;
40955;SDS011;26687;48.254;11.454;2023-12-14T02:55:55;1.00;;;0.90;;
40955;SDS011;26687;48.254;11.454;2023-12-14T02:58:55;1.30;;;1.07;;
40955;SDS011;26687;48.254;11.454;2023-12-14T03:01:55;0.90;;;0.90;;
40955;SDS011;26687;48.254;11.454;2023-12-14T03:04:55;0.95;;;0.95;;
40955;SDS011;26687;48.254;11.454;2023-12-14T03:07:56;1.10;;;1.00;;
40955;SDS011;26687;48.254;11.454;2023-12-14T03:10:56;1.13;;;1.10;;
40955;SDS011;26687;48.254;11.454;2023-12-14T03:13:57;1.40;;;1.30;;
40955;SDS011;26687;48.254;11.454;2023-12-14T03:16:57;1.20;;;1.10;;
40955;SDS011;26687;48.254;11.454;2023-12-14T03:19:57;1.40;;;1.30;;
40955;SDS011;26687;48.254;11.454;2023-12-14T03:22:57;1.50;;;1.40;;
40955;SDS011;26687;48.254;11.454;2023-12-14T03:25:58;1.70;;;1.60;;
40955;SDS011;26687;48.254;11.454;2023-12-14T03:28:58;1.80;;;1.70;;
40955;SDS011;26687;48.254;11.454;2023-12-14T03:31:58;1.67;;;1.57;;
40955;SDS011;26687;48.254;11.454;2023-12-14T03:34:58;2.30;;;2.10;;
40955;SDS011;26687;48.254;11.454;2023-12-14T03:37:58;1.88;;;1.77;;
40955;SDS011;26687;48.254;11.454;2023-12-14T03:40:59;1.70;;;1.60;;
40955;SDS011;26687;48.254;11.454;2023-12-14T03:43:59;1.83;;;1.73;;
40955;SDS011;26687;48.254;11.454;2023-12-14T03:46:59;2.07;;;1.97;;
40955;SDS011;26687;48.254;11.454;2023-12-14T03:50:00;1.85;;;1.75;;
40955;SDS011;26687;48.254;11.454;2023-12-14T03:53:00;2.22;;;1.60;;
40955;SDS011;26687;48.254;11.454;2023-12-14T03:56:00;1.80;;;1.70;;
40955;SDS011;26687;48.254;11.454;2023-12-14T03:59:00;1.38;;;1.30;;
40955;SDS011;26687;48.254;11.454;2023-12-14T04:02:01;1.85;;;1.75;;
40955;SDS011;26687;48.254;11.454;2023-12-14T04:05:01;1.60;;;1.50;;
40955;SDS011;26687;48.254;11.454;2023-12-14T04:08:01;1.40;;;1.30;;
40955;SDS011;26687;48.254;11.454;2023-12-14T04:11:01;0.98;;;0.98;;
40955;SDS011;26687;48.254;11.454;2023-12-14T04:14:01;1.30;;;1.20;;
40955;SDS011;26687;48.254;11.454;2023-12-14T04:17:02;1.17;;;1.10;;
40955;SDS011;26687;48.254;11.454;2023-12-14T04:20:02;1.10;;;1.00;;
40955;SDS011;26687;48.254;11.454;2023-12-14T04:23:06;1.73;;;1.63;;
40955;SDS011;26687;48.254;11.454;2023-12-14T04:26:06;1.23;;;1.03;;
40955;SDS011;26687;48.254;11.454;2023-12-14T04:29:07;1.10;;;1.00;;
40955;SDS011;26687;48.254;11.454;2023-12-14T04:32:07;0.73;;;0.73;;
40955;SDS011;26687;48.254;11.454;2023-12-14T04:35:08;0.93;;;0.70;;
40955;SDS011;26687;48.254;11.454;2023-12-14T04:38:08;0.70;;;0.70;;
40955;SDS011;26687;48.254;11.454;2023-12-14T04:41:08;0.67;;;0.67;;
40955;SDS011;26687;48.254;11.454;2023-12-14T04:44:08;0.70;;;0.57;;
40955;SDS011;26687;48.254;11.454;2023-12-14T04:47:10;0.60;;;0.60;;
40955;SDS011;26687;48.254;11.454;2023-12-14T04:50:10;0.83;;;0.57;;
40955;SDS011;26687;48.254;11.454;2023-12-14T04:53:10;1.03;;;0.60;;
40955;SDS011;26687;48.254;11.454;2023-12-14T04:56:11;1.00;;;0.90;;
40955;SDS011;26687;48.254;11.454;2023-12-14T04:59:11;0.50;;;0.50;;
40955;SDS011;26687;48.254;11.454;2023-12-14T05:02:11;0.68;;;0.55;;
40955;SDS011;26687;48.254;11.454;2023-12-14T05:05:12;0.80;;;0.60;;
40955;SDS011;26687;48.254;11.454;2023-12-14T05:08:12;0.60;;;0.60;;
40955;SDS011;26687;48.254;11.454;2023-12-14T05:11:13;1.08;;;0.70;;
40955;SDS011;26687;48.254;11.454;2023-12-14T05:14:13;1.42;;;0.52;;
40955;SDS011;26687;48.254;11.454;2023-12-14T05:17:13;0.82;;;0.80;;
40955;SDS011;26687;48.254;11.454;2023-12-14T05:20:14;0.60;;;0.60;;
40955;SDS011;26687;48.254;11.454;2023-12-14T05:23:14;0.70;;;0.70;;
40955;SDS011;26687;48.254;11.454;2023-12-14T05:26:14;1.42;;;0.80;;
40955;SDS011;26687;48.254;11.454;2023-12-14T05:29:14;0.88;;;0.77;;
40955;SDS011;26687;48.254;11.454;2023-12-14T05:32:15;1.08;;;0.73;;
40955;SDS011;26687;48.254;11.454;2023-12-14T05:35:15;0.85;;;0.80;;
40955;SDS011;26687;48.254;11.454;2023-12-14T05:38:16;1.08;;;0.88;;
40955;SDS011;26687;48.254;11.454;2023-12-14T05:41:16;1.33;;;1.10;;
40955;SDS011;26687;48.254;11.454;2023-12-14T05:44:16;1.30;;;0.98;;
40955;SDS011;26687;48.254;11.454;2023-12-14T05:47:16;1.27;;;1.10;;
40955;SDS011;26687;48.254;11.454;2023-12-14T05:50:16;1.17;;;1.08;;
40955;SDS011;26687;48.254;11.454;2023-12-14T05:53:16;1.30;;;1.20;;
40955;SDS011;26687;48.254;11.454;2023-12-14T05:56:17;1.20;;;1.10;;
40955;SDS011;26687;48.254;11.454;2023-12-14T05:59:17;1.40;;;1.30;;
40955;SDS011;26687;48.254;11.454;2023-12-14T06:02:17;1.40;;;1.30;;
40955;SDS011;26687;48.254;11.454;2023-12-14T06:05:18;1.73;;;1.20;;
40955;SDS011;26687;48.254;11.454;2023-12-14T06:08:18;1.00;;;1.00;;
40955;SDS011;26687;48.254;11.454;2023-12-14T06:11:19;1.30;;;1.20;;
40955;SDS011;26687;48.254;11.454;2023-12-14T06:14:20;1.60;;;1.50;;
40955;SDS011;26687;48.254;11.454;2023-12-14T06:17:20;1.98;;;1.60;;
40955;SDS011;26687;48.254;11.454;2023-12-14T06:20:20;1.58;;;1.35;;
40955;SDS011;26687;48.254;11.454;2023-12-14T06:23:20;2.28;;;1.50;;
40955;SDS011;26687;48.254;11.454;2023-12-14T06:26:21;1.52;;;1.42;;
40955;SDS011;26687;48.254;11.454;2023-12-14T06:29:21;1.73;;;1.63;;
40955;SDS011;26687;48.254;11.454;2023-12-14T06:32:22;1.70;;;1.60;;
40955;SDS011;26687;48.254;11.454;2023-12-14T06:35:22;1.73;;;1.63;;
40955;SDS011;26687;48.254;11.454;2023-12-14T06:38:22;2.65;;;1.58;;
40955;SDS011;26687;48.254;11.454;2023-12-14T06:41:22;2.10;;;1.90;;
40955;SDS011;26687;48.254;11.454;2023-12-14T06:44:23;2.00;;;1.80;;
40955;SDS011;26687;48.254;11.454;2023-12-14T06:47:25;2.22;;;1.80;;
40955;SDS011;26687;48.254;11.454;2023-12-14T06:50:25;1.60;;;1.50;;
40955;SDS011;26687;48.254;11.454;2023-12-14T06:53:25;2.57;;;1.77;;
40955;SDS011;26687;48.254;11.454;2023-12-14T06:56:25;1.92;;;1.73;;
40955;SDS011;26687;48.254;11.454;2023-12-14T06:59:26;2.13;;;1.73;;
40955;SDS011;26687;48.254;11.454;2023-12-14T07:02:26;1.93;;;1.80;;
40955;SDS011;26687;48.254;11.454;2023-12-14T07:05:26;1.83;;;1.60;;
40955;SDS011;26687;48.254;11.454;2023-12-14T07:08:27;2.10;;;1.90;;
40955;SDS011;26687;48.254;11.454;2023-12-14T07:11:27;1.57;;;1.47;;
40955;SDS011;26687;48.254;11.454;2023-12-14T07:14:27;1.65;;;1.55;;
40955;SDS011;26687;48.254;11.454;2023-12-14T07:17:27;3.28;;;1.73;;
40955;SDS011;26687;48.254;11.454;2023-12-14T07:20:27;3.45;;;2.10;;
40955;SDS011;26687;48.254;11.454;2023-12-14T07:23:28;2.17;;;1.98;;
40955;SDS011;26687;48.254;11.454;2023-12-14T07:26:28;3.45;;;1.77;;
40955;SDS011;26687;48.254;11.454;2023-12-14T07:29:29;2.05;;;1.95;;
40955;SDS011;26687;48.254;11.454;2023-12-14T07:32:29;2.30;;;2.10;;
40955;SDS011;26687;48.254;11.454;2023-12-14T07:35:29;1.90;;;1.80;;
40955;SDS011;26687;48.254;11.454;2023-12-14T07:38:29;2.15;;;1.90;;
40955;SDS011;26687;48.254;11.454;2023-12-14T07:41:30;1.98;;;1.77;;
40955;SDS011;26687;48.254;11.454;2023-12-14T07:44:32;2.75;;;2.00;;
40955;SDS011;26687;48.254;11.454;2023-12-14T07:47:33;2.40;;;2.20;;
40955;SDS011;26687;48.254;11.454;2023-12-14T07:50:33;2.47;;;2.00;;
40955;SDS011;26687;48.254;11.454;2023-12-14T07:53:33;3.03;;;2.73;;
40955;SDS011;26687;48.254;11.454;2023-12-14T07:56:33;2.88;;;2.50;;
40955;SDS011;26687;48.254;11.454;2023-12-14T07:59:33;3.78;;;2.10;;
40955;SDS011;26687;48.254;11.454;2023-12-14T08:02:34;3.05;;;2.85;;
40955;SDS011;26687;48.254;11.454;2023-12-14T08:05:34;2.70;;;2.50;;
40955;SDS011;26687;48.254;11.454;2023-12-14T08:08:34;2.80;;;2.60;;
40955;SDS011;26687;48.254;11.454;2023-12-14T08:11:34;2.75;;;2.47;;
40955;SDS011;26687;48.254;11.454;2023-12-14T08:14:35;2.75;;;2.55;;
40955;SDS011;26687;48.254;11.454;2023-12-14T08:17:35;4.25;;;2.80;;
40955;SDS011;26687;48.254;11.454;2023-12-14T08:20:35;2.83;;;2.63;;
40955;SDS011;26687;48.254;11.454;2023-12-14T08:23:35;2.90;;;2.70;;
40955;SDS011;26687;48.254;11.454;2023-12-14T08:26:36;3.25;;;2.92;;
40955;SDS011;26687;48.254;11.454;2023-12-14T08:29:36;3.07;;;2.77;;
40955;SDS011;26687;48.254;11.454;2023-12-14T08:32:36;2.60;;;2.40;;
40955;SDS011;26687;48.254;11.454;2023-12-14T08:35:36;2.53;;;2.30;;
40955;SDS011;26687;48.254;11.454;2023-12-14T08:38:36;2.97;;;2.72;;
40955;SDS011;26687;48.254;11.454;2023-12-14T08:41:37;2.78;;;2.58;;
40955;SDS011;26687;48.254;11.454;2023-12-14T08:44:40;3.00;;;2.70;;
40955;SDS011;26687;48.254;11.454;2023-12-14T08:47:40;2.88;;;2.60;;
40955;SDS011;26687;48.254;11.454;2023-12-14T08:50:40;2.13;;;2.00;;
40955;SDS011;26687;48.254;11.454;2023-12-14T08:53:40;2.53;;;2.33;;
40955;SDS011;26687;48.254;11.454;2023-12-14T08:56:41;3.20;;;2.90;;
40955;SDS011;26687;48.254;11.454;2023-12-14T08:59:41;3.92;;;3.38;;
40955;SDS011;26687;48.254;11.454;2023-12-14T09:02:41;2.97;;;2.67;;
40955;SDS011;26687;48.254;11.454;2023-12-14T09:05:41;2.58;;;2.38;;
40955;SDS011;26687;48.254;11.454;2023-12-14T09:08:43;2.85;;;2.58;;
40955;SDS011;26687;48.254;11.454;2023-12-14T09:11:44;2.50;;;2.30;;
40955;SDS011;26687;48.254;11.454;2023-12-14T09:14:44;2.38;;;2.17;;
40955;SDS011;26687;48.254;11.454;2023-12-14T09:17:44;3.20;;;2.90;;
40955;SDS011;26687;48.254;11.454;2023-12-14T09:20:44;3.63;;;3.27;;
40955;SDS011;26687;48.254;11.454;2023-12-14T09:23:44;3.00;;;2.55;;
40955;SDS011;26687;48.254;11.454;2023-12-14T09:26:45;3.00;;;2.70;;
40955;SDS011;26687;48.254;11.454;2023-12-14T09:29:45;3.43;;;3.13;;
40955;SDS011;26687;48.254;11.454;2023-12-14T09:32:45;3.28;;;3.00;;
40955;SDS011;26687;48.254;11.454;2023-12-14T09:35:45;3.77;;;3.47;;
40955;SDS011;26687;48.254;11.454;2023-12-14T09:38:45;2.85;;;2.65;;
40955;SDS011;26687;48.254;11.454;2023-12-14T09:41:46;3.65;;;3.35;;
40955;SDS011;26687;48.254;11.454;2023-12-14T09:44:47;3.50;;;3.20;;
40955;SDS011;26687;48.254;11.454;2023-12-14T09:47:48;3.28;;;2.97;;
40955;SDS011;26687;48.254;11.454;2023-12-14T09:50:48;4.17;;;3.03;;
40955;SDS011;26687;48.254;11.454;2023-12-14T09:53:49;3.40;;;3.20;;
40955;SDS011;26687;48.254;11.454;2023-12-14T09:56:50;5.80;;;5.20;;
40955;SDS011;26687;48.254;11.454;2023-12-14T09:59:53;4.20;;;3.80;;
40955;SDS011;26687;48.254;11.454;2023-12-14T10:02:53;3.53;;;3.22;;
40955;SDS011;26687;48.254;11.454;2023-12-14T10:05:54;3.30;;;3.00;;
40955;SDS011;26687;48.254;11.454;2023-12-14T10:08:54;3.22;;;2.92;;
40955;SDS011;26687;48.254;11.454;2023-12-14T10:12:02;2.67;;;2.20;;
40955;SDS011;26687;48.254;11.454;2023-12-14T10:15:02;2.10;;;1.90;;
40955;SDS011;26687;48.254;11.454;2023-12-14T10:18:06;1.88;;;1.67;;
40955;SDS011;26687;48.254;11.454;2023-12-14T10:21:06;1.42;;;1.30;;
40955;SDS011;26687;48.254;11.454;2023-12-14T10:24:07;1.45;;;1.20;;
40955;SDS011;26687;48.254;11.454;2023-12-14T10:27:07;1.30;;;1.10;;
40955;SDS011;26687;48.254;11.454;2023-12-14T10:30:08;1.23;;;1.13;;
40955;SDS011;26687;48.254;11.454;2023-12-14T10:33:11;1.13;;;1.02;;
40955;SDS011;26687;48.254;11.454;2023-12-14T10:36:15;3.10;;;1.00;;
40955;SDS011;26687;48.254;11.454;2023-12-14T10:39:17;1.67;;;1.23;;
40955;SDS011;26687;48.254;11.454;2023-12-14T10:42:18;2.55;;;1.58;;
40955;SDS011;26687;48.254;11.454;2023-12-14T10:45:20;1.60;;;1.50;;
40955;SDS011;26687;48.254;11.454;2023-12-14T10:48:21;2.30;;;2.10;;
40955;SDS011;26687;48.254;11.454;2023-12-14T10:51:22;3.45;;;1.98;;
40955;SDS011;26687;48.254;11.454;2023-12-14T10:54:24;2.20;;;2.00;;
40955;SDS011;26687;48.254;11.454;2023-12-14T10:57:24;2.85;;;2.65;;
40955;SDS011;26687;48.254;11.454;2023-12-14T11:00:25;2.90;;;2.67;;
40955;SDS011;26687;48.254;11.454;2023-12-14T11:03:25;3.00;;;2.70;;
40955;SDS011;26687;48.254;11.454;2023-12-14T11:09:30;3.10;;;2.90;;
40955;SDS011;26687;48.254;11.454;2023-12-14T11:12:32;3.75;;;3.20;;
40955;SDS011;26687;48.254;11.454;2023-12-14T11:15:33;3.35;;;3.03;;
40955;SDS011;26687;48.254;11.454;2023-12-14T11:18:34;2.90;;;2.20;;
40955;SDS011;26687;48.254;11.454;2023-12-14T11:21:34;2.53;;;2.33;;
40955;SDS011;26687;48.254;11.454;2023-12-14T11:24:35;2.30;;;2.10;;
40955;SDS011;26687;48.254;11.454;2023-12-14T11:27:35;1.83;;;1.73;;
40955;SDS011;26687;48.254;11.454;2023-12-14T11:30:45;2.53;;;1.90;;
40955;SDS011;26687;48.254;11.454;2023-12-14T11:33:46;2.13;;;1.92;;
40955;SDS011;26687;48.254;11.454;2023-12-14T11:36:48;2.13;;;1.80;;
40955;SDS011;26687;48.254;11.454;2023-12-14T11:39:49;2.13;;;1.85;;
40955;SDS011;26687;48.254;11.454;2023-12-14T11:42:59;2.65;;;2.15;;
40955;SDS011;26687;48.254;11.454;2023-12-14T11:45:59;1.65;;;1.55;;
40955;SDS011;26687;48.254;11.454;2023-12-14T11:48:59;1.70;;;1.60;;
40955;SDS011;26687;48.254;11.454;2023-12-14T11:52:03;2.33;;;1.60;;
40955;SDS011;26687;48.254;11.454;2023-12-14T11:58:06;1.65;;;1.55;;
40955;SDS011;26687;48.254;11.454;2023-12-14T12:01:17;2.65;;;1.40;;
40955;SDS011;26687;48.254;11.454;2023-12-14T12:04:18;1.65;;;1.55;;
40955;SDS011;26687;48.254;11.454;2023-12-14T12:07:19;2.47;;;1.67;;
40955;SDS011;26687;48.254;11.454;2023-12-14T12:10:19;1.45;;;1.10;;
40955;SDS011;26687;48.254;11.454;2023-12-14T12:13:20;1.50;;;1.40;;
40955;SDS011;26687;48.254;11.454;2023-12-14T12:16:20;1.45;;;1.35;;
40955;SDS011;26687;48.254;11.454;2023-12-14T12:19:21;1.55;;;1.45;;
40955;SDS011;26687;48.254;11.454;2023-12-14T12:22:21;1.40;;;1.30;;
40955;SDS011;26687;48.254;11.454;2023-12-14T12:25:21;2.08;;;1.42;;
40955;SDS011;26687;48.254;11.454;2023-12-14T12:28:22;1.73;;;1.30;;
40955;SDS011;26687;48.254;11.454;2023-12-14T12:31:23;1.15;;;1.05;;
40955;SDS011;26687;48.254;11.454;2023-12-14T12:34:23;1.98;;;1.45;;
40955;SDS011;26687;48.254;11.454;2023-12-14T12:37:23;2.07;;;1.87;;
40955;SDS011;26687;48.254;11.454;2023-12-14T12:40:24;1.35;;;1.23;;
40955;SDS011;26687;48.254;11.454;2023-12-14T12:43:26;1.65;;;1.48;;
40955;SDS011;26687;48.254;11.454;2023-12-14T12:46:26;1.33;;;1.23;;
40955;SDS011;26687;48.254;11.454;2023-12-14T12:49:26;1.58;;;1.48;;
40955;SDS011;26687;48.254;11.454;2023-12-14T12:52:26;1.75;;;1.27;;
40955;SDS011;26687;48.254;11.454;2023-12-14T12:55:26;1.42;;;1.33;;
40955;SDS011;26687;48.254;11.454;2023-12-14T12:58:26;1.55;;;1.42;;
40955;SDS011;26687;48.254;11.454;2023-12-14T13:01:27;1.42;;;1.33;;
40955;SDS011;26687;48.254;11.454;2023-12-14T13:04:27;1.52;;;1.42;;
40955;SDS011;26687;48.254;11.454;2023-12-14T13:07:30;2.05;;;1.90;;
40955;SDS011;26687;48.254;11.454;2023-12-14T13:10:30;2.70;;;1.90;;
40955;SDS011;26687;48.254;11.454;2023-12-14T13:13:30;3.58;;;3.28;;
40955;SDS011;26687;48.254;11.454;2023-12-14T13:16:31;3.05;;;2.75;;
40955;SDS011;26687;48.254;11.454;2023-12-14T13:19:31;2.88;;;2.33;;
40955;SDS011;26687;48.254;11.454;2023-12-14T13:22:31;3.07;;;1.90;;
40955;SDS011;26687;48.254;11.454;2023-12-14T13:25:31;2.72;;;2.42;;
40955;SDS011;26687;48.254;11.454;2023-12-14T13:28:31;2.65;;;2.40;;
40955;SDS011;26687;48.254;11.454;2023-12-14T13:31:32;2.80;;;2.60;;
40955;SDS011;26687;48.254;11.454;2023-12-14T13:34:32;3.57;;;2.60;;
40955;SDS011;26687;48.254;11.454;2023-12-14T13:37:33;2.35;;;2.15;;
40955;SDS011;26687;48.254;11.454;2023-12-14T13:40:33;2.60;;;2.40;;
40955;SDS011;26687;48.254;11.454;2023-12-14T13:43:33;2.50;;;2.30;;
40955;SDS011;26687;48.254;11.454;2023-12-14T13:46:33;1.60;;;1.50;;
40955;SDS011;26687;48.254;11.454;2023-12-14T13:49:33;1.80;;;1.70;;
40955;SDS011;26687;48.254;11.454;2023-12-14T13:52:34;2.33;;;2.10;;
40955;SDS011;26687;48.254;11.454;2023-12-14T13:55:34;1.63;;;1.38;;
40955;SDS011;26687;48.254;11.454;2023-12-14T13:58:34;1.77;;;1.67;;
40955;SDS011;26687;48.254;11.454;2023-12-14T14:01:37;2.80;;;2.13;;
40955;SDS011;26687;48.254;11.454;2023-12-14T14:04:37;2.50;;;2.30;;
40955;SDS011;26687;48.254;11.454;2023-12-14T14:07:38;3.00;;;2.03;;
40955;SDS011;26687;48.254;11.454;2023-12-14T14:10:38;3.20;;;1.80;;
40955;SDS011;26687;48.254;11.454;2023-12-14T14:13:38;2.20;;;2.00;;
40955;SDS011;26687;48.254;11.454;2023-12-14T14:16:38;1.85;;;1.50;;
40955;SDS011;26687;48.254;11.454;2023-12-14T14:19:38;1.70;;;1.42;;
40955;SDS011;26687;48.254;11.454;2023-12-14T14:22:39;1.60;;;1.40;;
40955;SDS011;26687;48.254;11.454;2023-12-14T14:25:39;2.53;;;1.90;;
40955;SDS011;26687;48.254;11.454;2023-12-14T14:28:40;2.80;;;2.05;;
40955;SDS011;26687;48.254;11.454;2023-12-14T14:31:40;2.38;;;1.75;;
40955;SDS011;26687;48.254;11.454;2023-12-14T14:34:40;2.27;;;1.97;;
40955;SDS011;26687;48.254;11.454;2023-12-14T14:37:41;1.97;;;1.73;;
40955;SDS011;26687;48.254;11.454;2023-12-14T14:40:45;2.20;;;1.55;;
40955;SDS011;26687;48.254;11.454;2023-12-14T14:43:45;2.42;;;1.52;;
40955;SDS011;26687;48.254;11.454;2023-12-14T14:46:45;2.03;;;1.57;;
40955;SDS011;26687;48.254;11.454;2023-12-14T14:49:45;2.83;;;1.80;;
40955;SDS011;26687;48.254;11.454;2023-12-14T14:52:45;2.83;;;1.90;;
40955;SDS011;26687;48.254;11.454;2023-12-14T14:55:46;1.65;;;1.55;;
40955;SDS011;26687;48.254;11.454;2023-12-14T14:58:46;1.98;;;1.77;;
40955;SDS011;26687;48.254;11.454;2023-12-14T15:01:46;2.92;;;2.08;;
40955;SDS011;26687;48.254;11.454;2023-12-14T15:04:46;3.70;;;2.83;;
40955;SDS011;26687;48.254;11.454;2023-12-14T15:07:47;3.70;;;2.60;;
40955;SDS011;26687;48.254;11.454;2023-12-14T15:10:47;4.32;;;2.30;;
40955;SDS011;26687;48.254;11.454;2023-12-14T15:13:47;4.30;;;2.20;;
40955;SDS011;26687;48.254;11.454;2023-12-14T15:16:47;2.27;;;1.80;;
40955;SDS011;26687;48.254;11.454;2023-12-14T15:19:48;4.80;;;2.10;;
40955;SDS011;26687;48.254;11.454;2023-12-14T15:22:48;3.30;;;2.30;;
40955;SDS011;26687;48.254;11.454;2023-12-14T15:25:48;2.80;;;1.58;;
40955;SDS011;26687;48.254;11.454;2023-12-14T15:28:48;2.27;;;1.70;;
40955;SDS011;26687;48.254;11.454;2023-12-14T15:31:49;8.13;;;2.53;;
40955;SDS011;26687;48.254;11.454;2023-12-14T15:34:51;2.33;;;2.10;;
40955;SDS011;26687;48.254;11.454;2023-12-14T15:37:51;2.08;;;1.90;;
40955;SDS011;26687;48.254;11.454;2023-12-14T15:40:51;1.70;;;1.60;;
40955;SDS011;26687;48.254;11.454;2023-12-14T15:43:51;3.90;;;2.25;;
40955;SDS011;26687;48.254;11.454;2023-12-14T15:46:52;2.85;;;2.28;;
40955;SDS011;26687;48.254;11.454;2023-12-14T15:49:52;4.03;;;2.65;;
40955;SDS011;26687;48.254;11.454;2023-12-14T15:52:52;4.07;;;3.17;;
40955;SDS011;26687;48.254;11.454;2023-12-14T15:55:52;4.53;;;3.03;;
40955;SDS011;26687;48.254;11.454;2023-12-14T15:58:52;5.13;;;3.20;;
40955;SDS011;26687;48.254;11.454;2023-12-14T16:01:52;5.65;;;3.70;;
40955;SDS011;26687;48.254;11.454;2023-12-14T16:04:53;5.72;;;3.70;;
40955;SDS011;26687;48.254;11.454;2023-12-14T16:07:53;4.93;;;3.65;;
40955;SDS011;26687;48.254;11.454;2023-12-14T16:10:53;4.72;;;3.78;;
40955;SDS011;26687;48.254;11.454;2023-12-14T16:13:55;3.53;;;2.95;;
40955;SDS011;26687;48.254;11.454;2023-12-14T16:16:56;3.40;;;2.40;;
40955;SDS011;26687;48.254;11.454;2023-12-14T16:19:57;3.38;;;2.60;;
40955;SDS011;26687;48.254;11.454;2023-12-14T16:22:57;3.35;;;2.03;;
40955;SDS011;26687;48.254;11.454;2023-12-14T16:25:57;2.53;;;2.33;;
40955;SDS011;26687;48.254;11.454;2023-12-14T16:28:58;9.70;;;7.40;;
40955;SDS011;26687;48.254;11.454;2023-12-14T16:31:58;4.30;;;3.90;;
40955;SDS011;26687;48.254;11.454;2023-12-14T16:34:58;3.03;;;2.50;;
40955;SDS011;26687;48.254;11.454;2023-12-14T16:37:58;2.80;;;2.50;;
40955;SDS011;26687;48.254;11.454;2023-12-14T16:41:00;3.15;;;2.10;;
40955;SDS011;26687;48.254;11.454;2023-12-14T16:44:01;3.72;;;2.25;;
40955;SDS011;26687;48.254;11.454;2023-12-14T16:47:01;2.70;;;2.17;;
40955;SDS011;26687;48.254;11.454;2023-12-14T16:50:01;2.67;;;2.30;;
40955;SDS011;26687;48.254;11.454;2023-12-14T16:53:01;2.67;;;2.47;;
40955;SDS011;26687;48.254;11.454;2023-12-14T16:56:02;4.38;;;2.72;;
40955;SDS011;26687;48.254;11.454;2023-12-14T16:59:02;3.25;;;2.53;;
40955;SDS011;26687;48.254;11.454;2023-12-14T17:02:03;2.88;;;2.30;;
40955;SDS011;26687;48.254;11.454;2023-12-14T17:05:03;2.33;;;2.13;;
40955;SDS011;26687;48.254;11.454;2023-12-14T17:08:03;2.97;;;2.78;;
40955;SDS011;26687;48.254;11.454;2023-12-14T17:11:06;4.00;;;2.33;;
40955;SDS011;26687;48.254;11.454;2023-12-14T17:14:08;4.20;;;2.92;;
40955;SDS011;26687;48.254;11.454;2023-12-14T17:17:08;3.47;;;2.97;;
40955;SDS011;26687;48.254;11.454;2023-12-14T17:20:09;3.90;;;3.50;;
40955;SDS011;26687;48.254;11.454;2023-12-14T17:23:09;2.67;;;2.45;;
40955;SDS011;26687;48.254;11.454;2023-12-14T17:26:09;3.08;;;2.10;;
40955;SDS011;26687;48.254;11.454;2023-12-14T17:29:11;2.42;;;2.08;;
40955;SDS011;26687;48.254;11.454;2023-12-14T17:32:11;3.63;;;1.93;;
40955;SDS011;26687;48.254;11.454;2023-12-14T17:35:11;2.13;;;1.92;;
40955;SDS011;26687;48.254;11.454;2023-12-14T17:38:12;3.45;;;2.60;;
40955;SDS011;26687;48.254;11.454;2023-12-14T17:41:12;2.63;;;2.33;;
40955;SDS011;26687;48.254;11.454;2023-12-14T17:44:14;3.07;;;2.37;;
40955;SDS011;26687;48.254;11.454;2023-12-14T17:47:15;2.42;;;2.10;;
40955;SDS011;26687;48.254;11.454;2023-12-14T17:50:15;1.98;;;1.80;;
40955;SDS011;26687;48.254;11.454;2023-12-14T17:53:15;3.05;;;2.30;;
40955;SDS011;26687;48.254;11.454;2023-12-14T17:56:15;2.47;;;1.98;;